createdAt,value
2023-02-11T00:00:12.124Z,9.76
2023-02-11T00:02:38.686Z,9.94
2023-02-11T00:05:05.461Z,10.36
2023-02-11T00:07:33.181Z,10.52
2023-02-11T00:09:59.744Z,10.21
2023-02-11T00:12:26.240Z,9.61
2023-02-11T00:14:52.777Z,10.20
2023-02-11T00:17:19.465Z,10.59
2023-02-11T00:19:49.824Z,10.48
2023-02-11T00:22:16.330Z,10.51
2023-02-11T00:24:42.802Z,10.42
2023-02-11T00:27:09.279Z,10.61
2023-02-11T00:29:37.479Z,10.57
2023-02-11T00:32:05.290Z,10.59
2023-02-11T00:34:32.884Z,9.66
2023-02-11T00:36:59.520Z,10.51
2023-02-11T00:39:25.983Z,10.57
2023-02-11T00:41:52.425Z,10.47
2023-02-11T00:44:18.923Z,10.62
2023-02-11T00:46:45.452Z,10.64
2023-02-11T00:49:11.993Z,10.80
2023-02-11T00:51:38.424Z,10.74
2023-02-11T00:54:05.205Z,10.88
2023-02-11T00:56:31.715Z,10.73
2023-02-11T00:58:58.410Z,10.79
2023-02-11T01:01:24.967Z,10.77
2023-02-11T01:03:51.421Z,10.75
2023-02-11T01:06:18.004Z,10.61
2023-02-11T01:08:44.479Z,10.70
2023-02-11T01:11:15.477Z,10.77
2023-02-11T01:13:42.686Z,10.46
2023-02-11T01:16:10.462Z,10.69
2023-02-11T01:18:37.121Z,10.96
2023-02-11T01:21:03.893Z,11.00
2023-02-11T01:23:30.381Z,10.86
2023-02-11T01:25:57.028Z,10.90
2023-02-11T01:28:25.530Z,11.03
2023-02-11T01:30:52.768Z,10.92
2023-02-11T01:33:19.515Z,10.97
2023-02-11T01:35:46.191Z,10.93
2023-02-11T01:38:18.238Z,10.96
2023-02-11T01:40:49.915Z,10.83
2023-02-11T01:43:16.525Z,10.99
2023-02-11T01:46:00.050Z,10.73
2023-02-11T01:48:30.859Z,10.82
2023-02-11T01:51:01.781Z,10.98
2023-02-11T01:53:52.840Z,10.87
2023-02-11T01:56:39.006Z,11.06
2023-02-11T01:59:13.688Z,10.99
2023-02-11T02:01:40.807Z,11.05
2023-02-11T02:04:08.432Z,11.14
2023-02-11T02:06:41.016Z,11.29
2023-02-11T02:09:17.767Z,11.03
2023-02-11T02:11:44.288Z,11.15
2023-02-11T02:14:10.846Z,11.11
2023-02-11T02:16:37.806Z,11.22
2023-02-11T02:19:39.875Z,11.19
2023-02-11T02:22:41.829Z,11.10
2023-02-11T02:25:37.484Z,11.12
2023-02-11T02:28:37.293Z,11.34
2023-02-11T02:31:25.036Z,11.27
2023-02-11T02:34:19.936Z,11.08
2023-02-11T02:36:56.684Z,11.21
2023-02-11T02:39:29.378Z,11.24
2023-02-11T02:41:56.675Z,11.18
2023-02-11T02:44:23.681Z,11.25
2023-02-11T02:46:50.322Z,11.17
2023-02-11T02:49:17.204Z,11.21
2023-02-11T02:51:55.772Z,11.29
2023-02-11T02:54:29.567Z,11.66
2023-02-11T02:57:14.932Z,11.51
2023-02-11T02:59:57.920Z,11.55
2023-02-11T03:02:35.316Z,11.71
2023-02-11T03:05:29.214Z,11.62
2023-02-11T03:08:22.465Z,11.18
2023-02-11T03:10:51.363Z,10.96
2023-02-11T03:13:19.642Z,11.05
2023-02-11T03:15:50.506Z,10.98
2023-02-11T03:18:19.433Z,11.03
2023-02-11T03:20:49.505Z,11.03
2023-02-11T03:23:19.738Z,10.97
2023-02-11T03:25:52.308Z,10.91
2023-02-11T03:28:34.795Z,11.32
2023-02-11T03:31:22.897Z,11.94
2023-02-11T03:33:55.608Z,12.09
2023-02-11T03:36:56.976Z,12.00
2023-02-11T03:39:27.255Z,12.04
2023-02-11T03:41:55.816Z,12.06
2023-02-11T03:44:22.993Z,12.08
2023-02-11T03:46:51.578Z,11.70
2023-02-11T03:49:20.329Z,11.88
2023-02-11T03:51:47.994Z,11.92
2023-02-11T03:54:18.043Z,12.02
2023-02-11T03:56:52.153Z,11.48
2023-02-11T03:59:19.026Z,11.91
2023-02-11T04:01:45.458Z,12.01
2023-02-11T04:04:11.926Z,11.93
2023-02-11T04:06:38.604Z,12.00
2023-02-11T04:09:05.175Z,12.03
2023-02-11T04:11:31.887Z,11.93
2023-02-11T04:13:58.420Z,12.18
2023-02-11T04:16:25.074Z,12.03
2023-02-11T04:18:51.509Z,12.38
2023-02-11T04:21:17.947Z,12.00
2023-02-11T04:23:44.445Z,12.22
2023-02-11T04:26:10.976Z,12.19
2023-02-11T04:28:37.444Z,11.96
2023-02-11T04:31:03.984Z,12.24
2023-02-11T04:33:30.619Z,12.20
2023-02-11T04:35:57.029Z,12.18
2023-02-11T04:38:26.255Z,12.43
2023-02-11T04:40:52.750Z,12.50
2023-02-11T04:43:19.152Z,12.25
2023-02-11T04:45:45.570Z,12.22
2023-02-11T04:48:12.037Z,12.35
2023-02-11T04:50:39.748Z,12.22
2023-02-11T04:53:06.204Z,12.12
2023-02-11T04:55:32.674Z,12.29
2023-02-11T04:57:59.243Z,12.23
2023-02-11T05:00:25.663Z,12.21
2023-02-11T05:02:52.204Z,12.12
2023-02-11T05:05:18.612Z,12.25
2023-02-11T05:07:45.047Z,12.27
2023-02-11T05:10:11.691Z,11.86
2023-02-11T05:12:38.127Z,11.84
2023-02-11T05:15:05.221Z,11.96
2023-02-11T05:17:31.915Z,12.07
2023-02-11T05:19:58.338Z,12.27
2023-02-11T05:22:24.778Z,11.98
2023-02-11T05:24:51.308Z,12.22
2023-02-11T05:27:17.733Z,12.04
2023-02-11T05:29:44.174Z,12.24
2023-02-11T05:32:10.651Z,12.33
2023-02-11T05:34:37.068Z,12.37
2023-02-11T05:37:03.665Z,12.21
2023-02-11T05:39:30.321Z,12.32
2023-02-11T05:41:56.742Z,12.20
2023-02-11T05:44:23.295Z,12.39
2023-02-11T05:46:49.747Z,11.96
2023-02-11T05:49:17.232Z,12.33
2023-02-11T05:51:43.806Z,12.17
2023-02-11T05:54:10.869Z,12.22
2023-02-11T05:56:37.288Z,11.65
2023-02-11T05:59:03.794Z,12.01
2023-02-11T06:01:30.224Z,12.22
2023-02-11T06:03:56.744Z,11.96
2023-02-11T06:06:23.229Z,11.33
2023-02-11T06:08:49.660Z,11.42
2023-02-11T06:11:17.020Z,11.88
2023-02-11T06:13:43.666Z,12.20
2023-02-11T06:16:10.157Z,12.19
2023-02-11T06:18:36.686Z,12.15
2023-02-11T06:21:06.876Z,12.11
2023-02-11T06:23:33.290Z,11.76
2023-02-11T06:26:04.137Z,11.52
2023-02-11T06:28:34.613Z,11.86
2023-02-11T06:31:07.661Z,11.71
2023-02-11T06:33:34.453Z,11.87
2023-02-11T06:36:01.295Z,11.73
2023-02-11T06:38:27.936Z,11.79
2023-02-11T06:40:54.374Z,11.82
2023-02-11T06:43:20.991Z,11.92
2023-02-11T06:45:55.792Z,11.90
2023-02-11T06:48:23.709Z,11.92
2023-02-11T06:50:50.238Z,12.04
2023-02-11T06:53:16.825Z,12.04
2023-02-11T06:55:43.277Z,12.31
2023-02-11T06:58:09.720Z,12.16
2023-02-11T07:00:37.533Z,12.23
2023-02-11T07:03:04.345Z,12.11
2023-02-11T07:05:30.785Z,12.33
2023-02-11T07:07:57.374Z,12.25
2023-02-11T07:10:23.861Z,12.22
2023-02-11T07:12:50.247Z,11.91
2023-02-11T07:15:16.646Z,12.02
2023-02-11T07:17:43.110Z,12.10
2023-02-11T07:20:12.434Z,12.27
2023-02-11T07:22:38.986Z,12.25
2023-02-11T07:25:05.904Z,12.25
2023-02-11T07:27:32.336Z,12.25
2023-02-11T07:29:58.766Z,12.19
2023-02-11T07:32:25.176Z,11.95
2023-02-11T07:34:51.728Z,12.03
2023-02-11T07:37:18.714Z,12.39
2023-02-11T07:39:45.140Z,12.67
2023-02-11T07:42:11.608Z,12.33
2023-02-11T07:44:38.068Z,12.54
2023-02-11T07:47:04.610Z,11.76
2023-02-11T07:49:31.245Z,12.50
2023-02-11T07:51:57.751Z,12.53
2023-02-11T07:54:24.183Z,12.51
2023-02-11T07:56:50.827Z,12.36
2023-02-11T07:59:17.292Z,12.47
2023-02-11T08:01:43.779Z,12.65
2023-02-11T08:04:10.392Z,12.67
2023-02-11T08:06:41.361Z,12.77
2023-02-11T08:09:09.542Z,12.64
2023-02-11T08:11:36.104Z,12.88
2023-02-11T08:14:02.538Z,12.87
2023-02-11T08:16:34.001Z,12.93
2023-02-11T08:19:03.681Z,13.11
2023-02-11T08:21:30.274Z,13.14
2023-02-11T08:23:57.376Z,13.01
2023-02-11T08:26:26.203Z,13.02
2023-02-11T08:28:54.010Z,13.08
2023-02-11T08:31:23.631Z,13.08
2023-02-11T08:33:50.464Z,12.93
2023-02-11T08:36:21.017Z,12.97
2023-02-11T08:38:47.742Z,13.29
2023-02-11T08:41:16.008Z,13.04
2023-02-11T08:43:43.894Z,12.90
2023-02-11T08:46:14.032Z,13.04
2023-02-11T08:48:40.853Z,13.28
2023-02-11T08:51:17.244Z,13.13
2023-02-11T08:53:43.836Z,13.30
2023-02-11T08:56:13.352Z,13.09
2023-02-11T08:58:40.406Z,13.05
2023-02-11T09:01:11.741Z,13.02
2023-02-11T09:03:38.403Z,13.11
2023-02-11T09:06:06.871Z,13.06
2023-02-11T09:08:37.334Z,12.71
2023-02-11T09:11:04.129Z,12.73
2023-02-11T09:13:31.764Z,13.01
2023-02-11T09:15:59.268Z,12.92
2023-02-11T09:18:25.828Z,13.17
2023-02-11T09:20:52.714Z,13.22
2023-02-11T09:23:19.284Z,13.22
2023-02-11T09:25:45.844Z,12.96
2023-02-11T09:28:12.392Z,12.83
2023-02-11T09:30:39.111Z,12.71
2023-02-11T09:33:06.050Z,12.92
2023-02-11T09:35:33.224Z,13.14
2023-02-11T09:37:59.642Z,13.15
2023-02-11T09:40:26.285Z,13.10
2023-02-11T09:43:09.979Z,13.04
2023-02-11T09:45:36.516Z,13.24
2023-02-11T09:48:06.500Z,12.82
2023-02-11T09:50:40.168Z,12.88
2023-02-11T09:53:21.828Z,12.92
2023-02-11T09:55:55.633Z,13.41
2023-02-11T09:58:29.259Z,13.25
2023-02-11T10:01:03.226Z,12.74
2023-02-11T10:03:48.558Z,13.07
2023-02-11T10:06:36.893Z,13.11
2023-02-11T10:09:32.096Z,13.16
2023-02-11T10:12:12.441Z,13.31
2023-02-11T10:15:02.728Z,12.92
2023-02-11T10:17:50.576Z,12.58
2023-02-11T10:20:37.052Z,13.16
2023-02-11T10:23:17.100Z,13.41
2023-02-11T10:25:45.444Z,13.29
2023-02-11T10:28:18.236Z,13.33
2023-02-11T10:31:11.854Z,13.42
2023-02-11T10:33:56.355Z,13.39
2023-02-11T10:36:26.438Z,13.41
2023-02-11T10:38:52.982Z,13.56
2023-02-11T10:41:24.416Z,13.70
2023-02-11T10:43:51.030Z,13.38
2023-02-11T10:46:19.769Z,13.16
2023-02-11T10:48:52.831Z,13.17
2023-02-11T10:51:23.677Z,12.97
2023-02-11T10:54:13.857Z,13.01
2023-02-11T10:56:50.189Z,13.55
2023-02-11T10:59:23.761Z,13.68
2023-02-11T11:01:53.513Z,13.55
2023-02-11T11:04:26.087Z,13.55
2023-02-11T11:06:52.700Z,13.58
2023-02-11T11:09:32.828Z,13.54
2023-02-11T11:11:59.224Z,13.72
2023-02-11T11:14:29.675Z,13.95
2023-02-11T11:16:56.126Z,13.80
2023-02-11T11:19:24.364Z,13.43
2023-02-11T11:21:55.346Z,13.31
2023-02-11T11:24:22.879Z,13.35
2023-02-11T11:26:53.520Z,13.35
2023-02-11T11:29:24.270Z,13.27
2023-02-11T11:31:54.327Z,13.03
2023-02-11T11:34:29.066Z,13.33
2023-02-11T11:36:57.150Z,13.30
2023-02-11T11:39:30.064Z,13.10
2023-02-11T11:42:05.480Z,12.74
2023-02-11T11:44:36.629Z,12.82
2023-02-11T11:47:20.718Z,13.07
2023-02-11T11:49:56.874Z,13.38
2023-02-11T11:52:32.248Z,13.08
2023-02-11T11:55:05.273Z,13.27
2023-02-11T11:57:36.232Z,13.19
2023-02-11T12:00:03.935Z,13.38
2023-02-11T12:02:55.376Z,13.38
2023-02-11T12:05:36.483Z,13.17
2023-02-11T12:08:27.559Z,13.43
2023-02-11T12:11:06.098Z,13.32
2023-02-11T12:13:39.436Z,13.26
2023-02-11T12:16:45.398Z,13.40
2023-02-11T12:19:15.087Z,13.35
2023-02-11T12:21:45.642Z,13.85
2023-02-11T12:24:23.816Z,13.57
2023-02-11T12:27:07.663Z,13.36
2023-02-11T12:30:21.815Z,13.81
2023-02-11T12:33:00.789Z,13.65
2023-02-11T12:36:04.763Z,13.96
2023-02-11T12:38:46.873Z,14.08
2023-02-11T12:42:03.991Z,14.18
2023-02-11T12:44:46.211Z,13.80
2023-02-11T12:47:51.630Z,14.06
2023-02-11T12:50:28.149Z,13.71
2023-02-11T12:53:09.942Z,13.96
2023-02-11T12:55:43.631Z,13.98
2023-02-11T12:58:29.643Z,14.09
2023-02-11T13:01:06.889Z,13.87
2023-02-11T13:03:40.925Z,14.15
2023-02-11T13:06:10.899Z,14.18
2023-02-11T13:08:46.311Z,13.99
2023-02-11T13:11:16.703Z,14.24
2023-02-11T13:13:46.298Z,13.97
2023-02-11T13:16:40.847Z,13.78
2023-02-11T13:19:13.652Z,14.05
2023-02-11T13:22:04.868Z,13.94
2023-02-11T13:24:57.261Z,14.27
2023-02-11T13:27:36.938Z,13.79
2023-02-11T13:30:24.406Z,13.32
2023-02-11T13:32:53.776Z,13.52
2023-02-11T13:35:34.872Z,13.79
2023-02-11T13:38:16.713Z,13.61
2023-02-11T13:40:44.078Z,13.59
2023-02-11T13:43:25.534Z,13.77
2023-02-11T13:45:52.439Z,13.80
2023-02-11T13:48:24.618Z,13.42
2023-02-11T13:50:53.893Z,13.64
2023-02-11T13:53:21.291Z,13.44
2023-02-11T13:55:50.138Z,13.44
2023-02-11T13:58:28.835Z,13.62
2023-02-11T14:00:55.744Z,13.60
2023-02-11T14:03:46.902Z,13.41
2023-02-11T14:06:40.639Z,13.43
2023-02-11T14:09:30.070Z,13.24
2023-02-11T14:12:22.924Z,13.48
2023-02-11T14:15:22.105Z,13.41
2023-02-11T14:17:48.566Z,13.24
2023-02-11T14:20:36.953Z,13.20
2023-02-11T14:23:04.899Z,13.33
2023-02-11T14:25:32.023Z,13.34
2023-02-11T14:28:23.383Z,13.17
2023-02-11T14:31:10.679Z,13.27
2023-02-11T14:33:52.217Z,13.32
2023-02-11T14:36:52.406Z,13.38
2023-02-11T14:39:18.758Z,13.75
2023-02-11T14:41:47.671Z,13.68
2023-02-11T14:44:20.029Z,13.62
2023-02-11T14:46:50.402Z,13.60
2023-02-11T14:49:25.046Z,13.44
2023-02-11T14:51:53.530Z,13.65
2023-02-11T14:54:25.392Z,13.45
2023-02-11T14:57:14.736Z,13.64
2023-02-11T14:59:59.860Z,13.63
2023-02-11T15:02:34.050Z,13.72
2023-02-11T15:05:33.096Z,13.38
2023-02-11T15:08:03.197Z,13.77
2023-02-11T15:10:36.101Z,13.57
2023-02-11T15:13:03.923Z,13.91
2023-02-11T15:15:31.879Z,13.82
2023-02-11T15:18:01.483Z,13.74
2023-02-11T15:20:31.753Z,13.49
2023-02-11T15:23:07.917Z,13.45
2023-02-11T15:25:36.141Z,13.38
2023-02-11T15:28:16.621Z,13.16
2023-02-11T15:30:43.403Z,13.33
2023-02-11T15:33:22.285Z,13.49
2023-02-11T15:35:48.914Z,13.09
2023-02-11T15:38:15.500Z,13.28
2023-02-11T15:40:52.673Z,13.20
2023-02-11T15:43:19.438Z,13.52
2023-02-11T15:45:56.424Z,13.32
2023-02-11T15:48:26.793Z,13.36
2023-02-11T15:51:05.001Z,13.26
2023-02-11T15:53:38.135Z,13.46
2023-02-11T15:56:12.613Z,13.07
2023-02-11T15:58:40.581Z,13.28
2023-02-11T16:01:07.892Z,13.47
2023-02-11T16:03:34.538Z,13.49
2023-02-11T16:06:35.110Z,13.39
2023-02-11T16:09:06.175Z,13.34
2023-02-11T16:11:34.850Z,13.19
2023-02-11T16:14:05.823Z,13.28
2023-02-11T16:16:34.300Z,13.36
2023-02-11T16:19:06.359Z,13.41
2023-02-11T16:21:39.146Z,13.68
2023-02-11T16:24:07.416Z,13.55
2023-02-11T16:26:36.865Z,13.67
2023-02-11T16:29:14.690Z,13.66
2023-02-11T16:31:43.767Z,13.49
2023-02-11T16:34:18.643Z,13.56
2023-02-11T16:36:46.193Z,13.42
2023-02-11T16:39:12.934Z,13.38
2023-02-11T16:41:39.499Z,13.43
2023-02-11T16:44:06.120Z,13.42
2023-02-11T16:46:33.271Z,13.43
2023-02-11T16:49:09.097Z,13.49
2023-02-11T16:51:38.951Z,13.60
2023-02-11T16:54:05.767Z,13.30
2023-02-11T16:56:32.271Z,13.30
2023-02-11T16:58:58.884Z,13.38
2023-02-11T17:01:25.395Z,13.30
2023-02-11T17:03:52.944Z,12.95
2023-02-11T17:06:19.568Z,13.37
2023-02-11T17:08:46.178Z,13.34
2023-02-11T17:11:17.318Z,13.25
2023-02-11T17:13:46.108Z,13.34
2023-02-11T17:16:18.121Z,13.42
2023-02-11T17:18:44.911Z,13.29
2023-02-11T17:21:11.584Z,13.17
2023-02-11T17:23:38.217Z,13.25
2023-02-11T17:26:05.133Z,13.29
2023-02-11T17:28:32.433Z,13.42
2023-02-11T17:30:59.645Z,13.25
2023-02-11T17:33:26.628Z,13.55
2023-02-11T17:35:53.389Z,13.44
2023-02-11T17:38:20.391Z,13.34
2023-02-11T17:40:46.818Z,13.48
2023-02-11T17:43:13.342Z,13.38
2023-02-11T17:45:42.949Z,13.49
2023-02-11T17:48:09.566Z,13.49
2023-02-11T17:50:36.922Z,13.38
2023-02-11T17:53:03.364Z,13.49
2023-02-11T17:55:33.102Z,13.41
2023-02-11T17:57:59.940Z,13.47
2023-02-11T18:00:28.211Z,13.56
2023-02-11T18:02:57.526Z,13.54
2023-02-11T18:05:26.616Z,13.65
2023-02-11T18:07:54.942Z,13.60
2023-02-11T18:10:21.875Z,13.64
2023-02-11T18:12:48.745Z,13.50
2023-02-11T18:15:15.941Z,13.41
2023-02-11T18:17:42.693Z,13.33
2023-02-11T18:20:09.547Z,13.16
2023-02-11T18:22:39.363Z,13.21
2023-02-11T18:25:07.386Z,13.33
2023-02-11T18:27:33.989Z,13.13
2023-02-11T18:30:00.533Z,13.08
2023-02-11T18:32:27.137Z,12.92
2023-02-11T18:34:53.561Z,13.03
2023-02-11T18:37:20.117Z,13.15
2023-02-11T18:39:46.559Z,13.20
2023-02-11T18:42:13.012Z,13.19
2023-02-11T18:44:39.549Z,13.05
2023-02-11T18:47:05.976Z,13.13
2023-02-11T18:49:33.030Z,13.14
2023-02-11T18:51:59.528Z,12.97
2023-02-11T18:54:26.028Z,13.02
2023-02-11T18:56:53.033Z,13.07
2023-02-11T18:59:19.571Z,12.82
2023-02-11T19:01:46.988Z,12.86
2023-02-11T19:04:18.899Z,12.70
2023-02-11T19:06:47.782Z,12.94
2023-02-11T19:09:16.382Z,12.56
2023-02-11T19:11:53.944Z,12.97
2023-02-11T19:14:26.663Z,12.87
2023-02-11T19:16:55.578Z,12.85
2023-02-11T19:19:24.346Z,12.73
2023-02-11T19:21:50.841Z,12.89
2023-02-11T19:24:19.876Z,12.97
2023-02-11T19:26:47.633Z,12.67
2023-02-11T19:29:14.160Z,12.96
2023-02-11T19:31:41.226Z,13.06
2023-02-11T19:34:08.273Z,13.14
2023-02-11T19:36:34.782Z,13.09
2023-02-11T19:39:02.340Z,13.08
2023-02-11T19:41:29.682Z,12.81
2023-02-11T19:43:57.012Z,12.74
2023-02-11T19:46:25.249Z,13.05
2023-02-11T19:48:52.094Z,13.21
2023-02-11T19:51:19.520Z,13.22
2023-02-11T19:53:46.412Z,13.04
2023-02-11T19:56:13.386Z,12.91
2023-02-11T19:58:40.764Z,13.21
2023-02-11T20:01:12.868Z,13.09
2023-02-11T20:03:42.167Z,12.83
2023-02-11T20:06:12.108Z,12.89
2023-02-11T20:08:38.678Z,12.78
2023-02-11T20:11:06.476Z,13.00
2023-02-11T20:13:34.140Z,12.82
2023-02-11T20:16:09.243Z,12.92
2023-02-11T20:18:36.819Z,12.56
2023-02-11T20:21:11.660Z,13.08
2023-02-11T20:23:40.194Z,13.06
2023-02-11T20:26:07.588Z,13.13
2023-02-11T20:28:35.303Z,13.22
2023-02-11T20:31:02.181Z,13.09
2023-02-11T20:33:29.961Z,13.26
2023-02-11T20:36:01.651Z,13.19
2023-02-11T20:38:28.201Z,13.29
2023-02-11T20:40:55.082Z,13.01
2023-02-11T20:43:22.114Z,13.19
2023-02-11T20:45:49.058Z,13.08
2023-02-11T20:48:15.513Z,13.14
2023-02-11T20:50:41.897Z,13.06
2023-02-11T20:53:08.380Z,12.76
2023-02-11T20:55:37.796Z,12.63
2023-02-11T20:58:05.707Z,12.66
2023-02-11T21:00:33.677Z,12.72
2023-02-11T21:03:00.320Z,12.67
2023-02-11T21:05:26.900Z,12.91
2023-02-11T21:07:53.806Z,12.70
2023-02-11T21:10:20.452Z,12.58
2023-02-11T21:12:49.755Z,12.62
2023-02-11T21:15:16.633Z,12.43
2023-02-11T21:17:43.067Z,12.72
2023-02-11T21:20:10.141Z,12.80
2023-02-11T21:22:36.785Z,12.96
2023-02-11T21:25:03.282Z,12.82
2023-02-11T21:27:33.071Z,12.59
2023-02-11T21:30:00.760Z,12.51
2023-02-11T21:32:27.590Z,12.54
2023-02-11T21:34:54.159Z,12.59
2023-02-11T21:37:21.441Z,12.54
2023-02-11T21:39:48.178Z,12.34
2023-02-11T21:42:14.680Z,12.36
2023-02-11T21:44:41.136Z,12.53
2023-02-11T21:47:07.573Z,12.49
2023-02-11T21:49:34.032Z,12.50
2023-02-11T21:52:00.697Z,12.24
2023-02-11T21:54:31.956Z,12.33
2023-02-11T21:56:59.669Z,12.61
2023-02-11T21:59:26.160Z,12.60
2023-02-11T22:01:52.581Z,12.70
2023-02-11T22:04:19.254Z,12.89
2023-02-11T22:06:45.798Z,12.95
2023-02-11T22:09:12.415Z,13.02
2023-02-11T22:11:39.200Z,12.71
2023-02-11T22:14:05.854Z,12.95
2023-02-11T22:16:33.505Z,12.85
2023-02-11T22:19:02.333Z,12.95
2023-02-11T22:21:29.281Z,12.79
2023-02-11T22:23:56.208Z,12.72
2023-02-11T22:26:24.710Z,12.70
2023-02-11T22:28:51.870Z,12.48
2023-02-11T22:31:21.947Z,12.54
2023-02-11T22:33:48.601Z,12.57
2023-02-11T22:36:27.242Z,12.69
2023-02-11T22:38:54.828Z,12.45
2023-02-11T22:41:22.378Z,12.31
2023-02-11T22:43:49.561Z,12.28
2023-02-11T22:46:18.112Z,12.64
2023-02-11T22:48:44.985Z,12.37
2023-02-11T22:51:13.974Z,12.36
2023-02-11T22:53:40.627Z,12.12
2023-02-11T22:56:09.144Z,12.50
2023-02-11T22:58:36.521Z,12.66
2023-02-11T23:01:04.605Z,12.40
2023-02-11T23:03:31.783Z,12.65
2023-02-11T23:06:00.139Z,12.54
2023-02-11T23:08:27.751Z,12.75
2023-02-11T23:10:54.208Z,12.33
2023-02-11T23:13:20.969Z,11.97
2023-02-11T23:15:47.618Z,12.51
2023-02-11T23:18:15.359Z,12.14
2023-02-11T23:20:43.356Z,12.55
2023-02-11T23:23:09.863Z,12.55
2023-02-11T23:25:42.490Z,12.35
2023-02-11T23:28:09.380Z,12.09
2023-02-11T23:30:35.893Z,12.18
2023-02-11T23:33:02.343Z,12.26
2023-02-11T23:35:28.937Z,12.32
2023-02-11T23:37:55.669Z,12.73
2023-02-11T23:40:22.401Z,12.08
2023-02-11T23:42:49.229Z,12.54
2023-02-11T23:45:16.067Z,12.63
2023-02-11T23:47:42.732Z,12.76
2023-02-11T23:50:09.652Z,12.59
2023-02-11T23:52:36.196Z,12.95
2023-02-11T23:55:02.720Z,12.76
2023-02-11T23:57:31.432Z,12.71
2023-02-11T23:59:58.022Z,12.43
